Ana Sayfa
METAR-TAF:

METAR-TAF

Havaalanları :

Weatherford, Oklahoma, Amerika Birleşik Devletleri

Enlem: 35-32-45N, Boylam: 098-40-07W, yükseklik: 489 m

Güncel hava durumu gözlemi

Rapor saat 05:15 UTC de 24 dakika önce yapıldı.
Rüzgar güneydan 6 kt
Sıcaklık 11°C
Nem 100%
Basınç 1003 hPa
Görüş mesafesi: 16.1 km
800 ft yükseklikte parçalı çok bulutlu
1500 ft yükseklikte çok bulutlu

METAR: KOJA 240515Z AUTO 19006KT 10SM BKN008 OVC015 11/11 A2963 RMK AO2

Saat: 23:39 (05:39 UTC)


TAF: eksik

4.000'den fazla havaalanı için hava durumu gözlemleri ve tahminleri (METAR ve TAF raporları).

Kullanılabilir istasyonlar harita üzerinde sarı ve kırmızı noktalarla gösterilir.

İstasyonun adını görmek için fareyi noktanın üzerinde gezdirin.

Sonrasında hava gözlem ve tahminlerini görmek için tıklayın.

Haritayı değiştirmek için: yaklaştırmak için siyah artı işaretli yeşil düğmeye ve uzaklaştırmak için de eksi işaretli düğmeye hızla tıklayın; bitişik haritalar için yeşil okları kullanın.


METAR-TAF: